createdAt,value
2022-09-28T00:00:22.511Z,3.47
2022-09-28T00:03:09.230Z,6.30
2022-09-28T00:08:46.353Z,6.43
2022-09-28T00:11:31.986Z,2.97
2022-09-28T00:14:17.974Z,3.75
2022-09-28T00:17:03.672Z,8.57
2022-09-28T00:19:49.043Z,3.17
2022-09-28T00:22:34.333Z,3.15
2022-09-28T00:34:33.086Z,3.03
2022-09-28T01:38:35.810Z,4.32
2022-09-28T01:41:23.696Z,4.88
2022-09-28T01:44:14.882Z,4.03
2022-09-28T01:51:57.035Z,5.03
2022-09-28T01:54:45.303Z,6.60
2022-09-28T01:58:00.533Z,4.75
2022-09-28T02:00:49.425Z,8.40
2022-09-28T02:03:59.410Z,4.50
2022-09-28T02:07:01.085Z,7.18
2022-09-28T02:09:58.653Z,6.50
2022-09-28T02:12:52.029Z,3.85
2022-09-28T02:15:42.553Z,5.38
2022-09-28T02:18:28.271Z,7.80
2022-09-28T02:21:22.793Z,4.78
2022-09-28T02:24:21.248Z,7.18
2022-09-28T02:27:24.701Z,6.50
2022-09-28T02:30:11.547Z,6.45
2022-09-28T02:33:03.466Z,6.07
2022-09-28T02:35:49.081Z,5.18
2022-09-28T02:38:34.254Z,7.95
2022-09-28T02:41:38.408Z,6.93
2022-09-28T02:44:26.472Z,4.97
2022-09-28T02:52:08.180Z,5.75
2022-09-28T02:55:14.992Z,2.83
2022-09-28T02:58:35.339Z,2.08
2022-09-28T03:01:27.125Z,1.88
2022-09-28T03:04:35.951Z,2.03
2022-09-28T03:07:38.456Z,1.58
2022-09-28T03:10:38.592Z,1.10
2022-09-28T03:13:25.690Z,1.23
2022-09-28T03:16:17.359Z,2.35
2022-09-28T03:19:03.010Z,1.20
2022-09-28T03:21:48.210Z,1.95
2022-09-28T03:24:33.504Z,1.98
2022-09-28T03:27:19.149Z,1.38
2022-09-28T03:30:05.468Z,1.23
2022-09-28T03:33:02.512Z,3.17
2022-09-28T03:35:50.398Z,2.05
2022-09-28T03:38:36.020Z,3.08
2022-09-28T03:41:21.827Z,3.38
2022-09-28T03:44:07.308Z,0.80
2022-09-28T03:46:53.008Z,0.90
2022-09-28T03:50:35.030Z,3.50
2022-09-28T03:53:20.292Z,1.08
2022-09-28T03:56:08.458Z,1.52
2022-09-28T03:58:54.098Z,0.85
2022-09-28T04:01:39.718Z,1.67
2022-09-28T04:04:25.058Z,1.00
2022-09-28T04:07:10.651Z,2.15
2022-09-28T04:09:56.167Z,2.30
2022-09-28T04:12:42.014Z,1.65
2022-09-28T04:15:27.480Z,1.05
2022-09-28T04:18:13.590Z,2.40
2022-09-28T04:21:03.573Z,1.63
2022-09-28T04:23:49.459Z,1.25
2022-09-28T04:26:34.864Z,1.13
2022-09-28T04:29:20.994Z,3.22
2022-09-28T04:32:06.765Z,1.10
2022-09-28T04:34:52.357Z,1.77
2022-09-28T04:37:37.427Z,1.25
2022-09-28T04:40:23.048Z,2.72
2022-09-28T04:43:08.510Z,3.20
2022-09-28T04:45:59.331Z,1.95
2022-09-28T04:53:41.867Z,1.25
2022-09-28T04:56:27.476Z,1.08
2022-09-28T04:59:13.583Z,1.20
2022-09-28T05:02:04.247Z,2.88
2022-09-28T05:04:49.764Z,1.40
2022-09-28T05:07:35.573Z,2.53
2022-09-28T05:10:21.135Z,1.75
2022-09-28T05:13:07.383Z,1.90
2022-09-28T05:15:58.201Z,1.00
2022-09-28T05:18:46.015Z,1.10
2022-09-28T05:21:31.665Z,1.73
2022-09-28T05:24:17.420Z,5.10
2022-09-28T05:27:02.919Z,2.08
2022-09-28T05:29:48.553Z,1.80
2022-09-28T05:32:34.214Z,1.27
2022-09-28T05:35:20.253Z,1.98
2022-09-28T05:38:05.959Z,1.42
2022-09-28T05:40:51.355Z,1.60
2022-09-28T05:43:36.885Z,1.65
2022-09-28T05:46:23.694Z,2.05
2022-09-28T05:50:05.758Z,2.35
2022-09-28T05:53:01.583Z,1.80
2022-09-28T05:55:47.252Z,1.23
2022-09-28T05:58:32.771Z,3.08
2022-09-28T06:01:18.266Z,1.17
2022-09-28T06:04:03.975Z,1.35
2022-09-28T06:06:49.320Z,1.88
2022-09-28T06:09:34.664Z,1.40
2022-09-28T06:12:20.534Z,2.00
2022-09-28T06:15:06.845Z,2.75
2022-09-28T06:18:00.878Z,1.33
2022-09-28T06:24:52.516Z,1.60
2022-09-28T06:27:39.828Z,1.48
2022-09-28T06:31:22.068Z,3.17
2022-09-28T06:34:07.417Z,1.20
2022-09-28T06:37:49.584Z,2.17
2022-09-28T06:40:35.880Z,2.33
2022-09-28T06:44:18.069Z,1.50
2022-09-28T06:47:03.485Z,1.75
2022-09-28T06:50:45.681Z,1.50
2022-09-28T06:53:32.513Z,1.63
2022-09-28T06:57:14.754Z,3.03
2022-09-28T07:00:00.438Z,1.60
2022-09-28T07:03:42.393Z,1.27
2022-09-28T07:06:31.043Z,1.70
2022-09-28T07:10:12.810Z,1.27
2022-09-28T07:13:02.606Z,2.60
2022-09-28T07:17:08.356Z,1.40
2022-09-28T07:19:52.794Z,1.73
2022-09-28T07:27:42.168Z,1.35
2022-09-28T07:30:32.899Z,1.60
2022-09-28T07:33:18.621Z,1.13
2022-09-28T07:36:06.879Z,1.90
2022-09-28T07:38:52.028Z,2.75
2022-09-28T07:41:39.620Z,2.90
2022-09-28T07:44:25.240Z,2.92
2022-09-28T07:47:10.845Z,1.40
2022-09-28T07:49:57.060Z,1.38
2022-09-28T07:52:44.368Z,2.42
2022-09-28T07:55:29.576Z,2.63
2022-09-28T07:58:14.867Z,1.50
2022-09-28T08:01:04.881Z,2.72
2022-09-28T08:03:50.389Z,1.70
2022-09-28T08:06:35.767Z,2.85
2022-09-28T08:09:21.238Z,1.67
2022-09-28T08:12:07.739Z,1.77
2022-09-28T08:14:53.448Z,2.65
2022-09-28T08:17:39.021Z,1.80
2022-09-28T08:20:42.969Z,5.40
2022-09-28T08:23:28.618Z,2.13
2022-09-28T08:31:17.127Z,2.13
2022-09-28T08:34:03.060Z,0.80
2022-09-28T08:36:48.336Z,0.90
2022-09-28T08:39:34.727Z,0.88
2022-09-28T08:42:39.453Z,0.73
2022-09-28T08:45:30.014Z,3.67
2022-09-28T08:48:52.390Z,1.00
2022-09-28T08:51:58.771Z,0.88
2022-09-28T08:55:31.349Z,1.38
2022-09-28T08:58:26.076Z,1.55
2022-09-28T09:01:17.072Z,1.75
2022-09-28T09:04:05.246Z,1.20
2022-09-28T09:06:56.564Z,2.97
2022-09-28T09:09:48.303Z,1.15
2022-09-28T09:12:47.292Z,2.92
2022-09-28T09:15:43.375Z,1.02
2022-09-28T09:18:55.500Z,0.60
2022-09-28T09:21:44.050Z,1.73
2022-09-28T09:24:44.370Z,1.75
2022-09-28T09:28:26.374Z,2.28
2022-09-28T09:31:44.790Z,0.63
2022-09-28T09:34:33.138Z,4.53
2022-09-28T09:37:34.403Z,0.70
2022-09-28T09:40:35.235Z,1.60
2022-09-28T09:43:48.760Z,1.33
2022-09-28T09:46:40.180Z,3.55
2022-09-28T09:49:30.178Z,0.70
2022-09-28T09:52:22.132Z,1.60
2022-09-28T09:55:10.374Z,1.17
2022-09-28T09:58:34.914Z,1.35
2022-09-28T10:01:30.566Z,2.42
2022-09-28T10:04:46.160Z,1.50
2022-09-28T10:07:43.546Z,0.70
2022-09-28T10:10:35.427Z,1.60
2022-09-28T10:13:20.735Z,0.70
2022-09-28T10:16:07.575Z,0.52
2022-09-28T10:18:53.128Z,2.78
2022-09-28T10:21:40.623Z,2.45
2022-09-28T10:24:38.441Z,0.60
2022-09-28T10:28:20.718Z,2.00
2022-09-28T10:31:37.333Z,0.93
2022-09-28T10:34:28.290Z,0.82
2022-09-28T10:37:14.146Z,0.93
2022-09-28T10:39:59.841Z,0.57
2022-09-28T10:42:45.674Z,0.82
2022-09-28T10:45:37.123Z,0.60
2022-09-28T10:48:23.021Z,1.17
2022-09-28T10:51:08.768Z,2.58
2022-09-28T10:54:02.182Z,0.45
2022-09-28T10:56:49.248Z,3.22
2022-09-28T10:59:38.999Z,0.60
2022-09-28T11:02:32.316Z,0.68
2022-09-28T11:05:24.442Z,2.17
2022-09-28T11:08:27.550Z,0.95
2022-09-28T11:11:19.930Z,0.60
2022-09-28T11:14:17.976Z,3.13
2022-09-28T11:17:25.206Z,0.70
2022-09-28T11:20:27.829Z,1.67
2022-09-28T11:23:26.452Z,0.75
2022-09-28T11:31:15.418Z,1.15
2022-09-28T11:34:16.414Z,0.77
2022-09-28T11:37:31.293Z,1.27
2022-09-28T11:40:26.963Z,0.50
2022-09-28T11:43:37.742Z,2.05
2022-09-28T11:46:22.971Z,2.60
2022-09-28T11:49:20.206Z,1.00
2022-09-28T11:52:41.564Z,1.15
2022-09-28T11:55:44.542Z,0.52
2022-09-28T11:58:32.899Z,1.42
2022-09-28T12:01:42.706Z,0.98
2022-09-28T12:04:40.847Z,1.02
2022-09-28T12:07:33.128Z,1.42
2022-09-28T12:11:00.232Z,0.98
2022-09-28T12:13:49.169Z,1.15
2022-09-28T12:20:01.433Z,0.55
2022-09-28T12:23:11.180Z,1.98
2022-09-28T12:26:03.486Z,1.73
2022-09-28T12:29:45.368Z,1.15
2022-09-28T12:32:43.142Z,0.60
2022-09-28T12:35:56.067Z,1.00
2022-09-28T12:39:21.768Z,0.95
2022-09-28T12:42:32.730Z,0.55
2022-09-28T12:45:53.097Z,0.73
2022-09-28T12:52:33.005Z,2.75
2022-09-28T12:55:24.433Z,0.63
2022-09-28T12:58:31.109Z,2.00
2022-09-28T13:01:27.595Z,0.98
2022-09-28T13:04:37.929Z,2.40
2022-09-28T13:08:27.951Z,0.68
2022-09-28T13:11:33.865Z,1.75
2022-09-28T13:14:43.028Z,2.85
2022-09-28T13:17:40.355Z,1.52
2022-09-28T13:20:35.883Z,1.73
2022-09-28T13:23:28.849Z,0.60
2022-09-28T13:26:28.433Z,0.95
2022-09-28T13:34:10.995Z,2.10
2022-09-28T13:37:24.091Z,2.28
2022-09-28T13:40:09.798Z,2.05
2022-09-28T13:43:19.685Z,2.90
2022-09-28T13:46:23.797Z,1.27
2022-09-28T13:49:24.657Z,0.73
2022-09-28T13:52:16.112Z,0.80
2022-09-28T13:55:20.074Z,1.90
2022-09-28T13:58:26.058Z,0.60
2022-09-28T14:01:17.366Z,0.63
2022-09-28T14:04:22.101Z,1.67
2022-09-28T14:07:20.242Z,2.90
2022-09-28T14:10:24.724Z,2.25
2022-09-28T14:13:10.619Z,0.70
2022-09-28T14:16:18.903Z,1.23
2022-09-28T14:19:24.647Z,0.70
2022-09-28T14:22:23.469Z,1.55
2022-09-28T14:25:17.397Z,3.28
2022-09-28T14:28:59.283Z,1.65
2022-09-28T14:31:45.306Z,0.77
2022-09-28T14:34:34.916Z,0.68
2022-09-28T14:38:09.037Z,0.95
2022-09-28T14:41:29.731Z,0.70
2022-09-28T14:44:19.171Z,0.77
2022-09-28T14:47:42.338Z,0.70
2022-09-28T14:50:29.353Z,0.70
2022-09-28T14:53:20.921Z,1.80
2022-09-28T14:56:08.849Z,1.75
2022-09-28T14:58:57.188Z,0.60
2022-09-28T15:01:48.024Z,0.60
2022-09-28T15:04:39.040Z,0.70
2022-09-28T15:07:52.684Z,0.93
2022-09-28T15:10:45.461Z,0.70
2022-09-28T15:13:30.839Z,2.60
2022-09-28T15:16:17.876Z,1.05
2022-09-28T15:19:26.647Z,1.92
2022-09-28T15:22:20.114Z,3.38
2022-09-28T15:25:22.246Z,0.90
2022-09-28T15:33:11.070Z,2.80
2022-09-28T15:36:03.644Z,2.05
2022-09-28T15:38:57.169Z,1.10
2022-09-28T15:41:46.104Z,0.98
2022-09-28T15:44:37.033Z,0.93
2022-09-28T15:47:31.883Z,0.82
2022-09-28T15:50:22.000Z,1.15
2022-09-28T15:53:07.116Z,2.58
2022-09-28T15:55:53.118Z,1.10
2022-09-28T15:58:39.897Z,0.98
2022-09-28T16:01:29.390Z,3.45
2022-09-28T16:04:48.029Z,1.42
2022-09-28T16:07:40.475Z,1.08
2022-09-28T16:10:33.627Z,1.52
2022-09-28T16:13:20.376Z,2.28
2022-09-28T16:16:06.207Z,2.28
2022-09-28T16:18:52.912Z,1.75
2022-09-28T16:21:46.840Z,3.80
2022-09-28T16:24:38.422Z,1.95
2022-09-28T16:27:42.511Z,2.95
2022-09-28T16:31:07.595Z,6.35
2022-09-28T16:42:01.082Z,5.07
2022-09-28T16:44:46.819Z,1.25
2022-09-28T16:47:34.190Z,1.80
2022-09-28T16:50:23.554Z,2.92
2022-09-28T16:53:33.242Z,2.95
2022-09-28T16:56:18.602Z,3.60
2022-09-28T16:59:04.696Z,8.60
2022-09-28T17:01:49.980Z,4.70
2022-09-28T17:04:35.844Z,3.25
2022-09-28T17:07:21.671Z,4.47
2022-09-28T17:10:55.726Z,2.00
2022-09-28T17:13:45.826Z,5.40
2022-09-28T17:17:02.394Z,1.73
2022-09-28T17:19:38.633Z,1.67
2022-09-28T17:22:24.106Z,2.13
2022-09-28T17:25:12.694Z,1.70
2022-09-28T17:27:58.975Z,1.60
2022-09-28T17:35:41.070Z,1.13
2022-09-28T17:38:26.704Z,1.35
2022-09-28T17:41:18.086Z,1.52
2022-09-28T17:44:06.464Z,1.88
2022-09-28T17:46:52.499Z,1.48
2022-09-28T17:49:38.829Z,1.57
2022-09-28T17:52:24.769Z,1.42
2022-09-28T17:55:10.203Z,4.47
2022-09-28T17:57:56.160Z,3.10
2022-09-28T18:00:41.651Z,3.10
2022-09-28T18:03:27.356Z,2.58
2022-09-28T18:06:16.752Z,3.03
2022-09-28T18:09:03.160Z,2.35
2022-09-28T18:11:52.748Z,2.40
2022-09-28T18:14:39.962Z,2.55
2022-09-28T18:17:25.025Z,7.68
2022-09-28T18:20:12.590Z,3.83
2022-09-28T18:22:57.887Z,3.50
2022-09-28T18:25:44.351Z,4.55
2022-09-28T18:28:29.625Z,2.70
2022-09-28T18:32:12.051Z,2.45
2022-09-28T18:34:57.486Z,2.05
2022-09-28T18:37:43.118Z,3.38
2022-09-28T18:40:28.665Z,2.35
2022-09-28T18:43:14.945Z,3.47
2022-09-28T18:46:07.235Z,7.25
2022-09-28T18:48:52.989Z,2.55
2022-09-28T18:51:38.791Z,2.83
2022-09-28T18:54:24.459Z,4.25
2022-09-28T18:57:09.932Z,4.53
2022-09-28T18:59:55.273Z,4.72
2022-09-28T19:02:41.118Z,2.35
2022-09-28T19:05:28.039Z,1.92
2022-09-28T19:08:13.515Z,4.40
2022-09-28T19:11:11.076Z,1.90
2022-09-28T19:13:57.002Z,2.58
2022-09-28T19:16:44.330Z,2.70
2022-09-28T19:19:30.202Z,3.17
2022-09-28T19:22:15.663Z,4.43
2022-09-28T19:25:01.537Z,2.72
2022-09-28T19:27:47.939Z,3.45
2022-09-28T19:35:29.547Z,2.75
2022-09-28T19:38:14.888Z,4.43
2022-09-28T19:41:01.556Z,3.33
2022-09-28T19:43:47.101Z,3.15
2022-09-28T19:46:33.506Z,4.85
2022-09-28T19:49:19.744Z,4.85
2022-09-28T19:52:16.753Z,5.63
2022-09-28T19:55:03.048Z,4.90
2022-09-28T19:57:49.174Z,7.20
2022-09-28T20:00:36.870Z,4.73
2022-09-28T20:03:22.523Z,5.90
2022-09-28T20:06:08.090Z,5.22
2022-09-28T20:08:54.546Z,8.50
2022-09-28T20:11:39.721Z,7.65
2022-09-28T20:14:27.559Z,5.13
2022-09-28T20:17:16.112Z,4.30
2022-09-28T20:20:02.008Z,7.45
2022-09-28T20:22:47.560Z,2.70
2022-09-28T20:25:33.930Z,4.07
2022-09-28T20:28:19.555Z,3.65
2022-09-28T20:32:02.301Z,6.63
2022-09-28T20:34:47.521Z,9.93
2022-09-28T20:37:33.783Z,8.90
2022-09-28T20:40:19.517Z,3.70
2022-09-28T20:43:06.457Z,8.77
2022-09-28T20:48:38.179Z,4.43
2022-09-28T20:51:24.043Z,6.07
2022-09-28T20:54:09.899Z,6.80
2022-09-28T20:56:55.275Z,5.70
2022-09-28T20:59:41.109Z,4.15
2022-09-28T21:02:26.389Z,4.32
2022-09-28T21:05:11.967Z,6.88
2022-09-28T21:07:58.516Z,4.10
2022-09-28T21:10:44.655Z,5.05
2022-09-28T21:13:30.047Z,6.97
2022-09-28T21:16:18.147Z,4.80
2022-09-28T21:19:04.235Z,5.45
2022-09-28T21:21:49.499Z,6.90
2022-09-28T21:24:34.978Z,5.68
2022-09-28T21:27:20.398Z,3.70
2022-09-28T21:30:06.582Z,4.95
2022-09-28T21:33:48.458Z,5.57
2022-09-28T21:36:34.376Z,5.53
2022-09-28T21:39:20.397Z,4.47
2022-09-28T21:42:06.176Z,4.90
2022-09-28T21:44:51.424Z,3.50
2022-09-28T21:47:36.992Z,5.95
2022-09-28T21:50:26.703Z,6.90
2022-09-28T21:53:12.060Z,6.43
2022-09-28T21:55:58.955Z,7.50
2022-09-28T22:01:29.768Z,5.53
2022-09-28T22:04:15.272Z,3.83
2022-09-28T22:07:00.731Z,3.50
2022-09-28T22:09:49.427Z,6.00
2022-09-28T22:12:37.597Z,8.05
2022-09-28T22:15:22.874Z,4.00
2022-09-28T22:18:08.326Z,5.82
2022-09-28T22:21:11.324Z,7.90
2022-09-28T22:24:01.572Z,7.07
2022-09-28T22:26:47.058Z,4.25
2022-09-28T22:29:32.702Z,4.57
2022-09-28T22:37:14.946Z,4.90
2022-09-28T22:40:00.755Z,5.18
2022-09-28T22:42:46.255Z,4.32
2022-09-28T22:45:31.278Z,4.32
2022-09-28T22:48:17.012Z,4.30
2022-09-28T22:51:03.908Z,4.90
2022-09-28T22:53:49.493Z,6.68
2022-09-28T22:56:34.730Z,3.97
2022-09-28T22:59:20.555Z,5.30
2022-09-28T23:02:05.993Z,6.30
2022-09-28T23:04:51.616Z,6.47
2022-09-28T23:07:36.918Z,8.55
2022-09-28T23:10:22.404Z,4.80
2022-09-28T23:13:07.778Z,5.50
2022-09-28T23:16:02.133Z,3.95
2022-09-28T23:18:49.372Z,5.07
2022-09-28T23:21:37.224Z,5.93
2022-09-28T23:24:22.326Z,6.45
2022-09-28T23:27:07.994Z,4.80
2022-09-28T23:29:54.263Z,3.78
2022-09-28T23:33:36.458Z,7.20
2022-09-28T23:36:21.950Z,3.83
2022-09-28T23:39:07.651Z,3.85
2022-09-28T23:41:53.242Z,4.13
2022-09-28T23:48:59.775Z,3.60
2022-09-28T23:51:45.318Z,3.55
2022-09-28T23:54:31.290Z,4.68
2022-09-28T23:57:17.009Z,4.00
